Time;durP1;ratioP1;P1;durP2;ratioP2;P2;SDS_P1;SDS_P2;PMS_P1;PMS_P2;Temp;Humidity;BMP_temperature;BMP_pressure;BME280_temperature;BME280_humidity;BME280_pressure;Samples;Min_cycle;Max_cycle;Signal;HPM_P1;HPM_P2
2021/04/05 00:00:41;;;;;;;27.23;8.77;;;5.60;99.90;;;;;;5046934;28;20031;-66
2021/04/05 00:03:07;;;;;;;34.38;8.52;;;5.60;99.90;;;;;;5044809;28;20029;-66
2021/04/05 00:05:37;;;;;;;20.63;7.97;;;5.60;99.90;;;;;;5038914;28;20063;-66
2021/04/05 00:08:04;;;;;;;24.38;8.10;;;5.60;99.90;;;;;;5050835;28;20144;-66
2021/04/05 00:10:52;;;;;;;28.98;8.18;;;5.50;99.90;;;;;;5049262;28;20033;-66
2021/04/05 00:13:28;;;;;;;27.35;8.07;;;5.60;99.90;;;;;;5048606;28;20037;-66
2021/04/05 00:15:55;;;;;;;24.05;8.40;;;5.50;99.90;;;;;;5039980;28;20037;-66
2021/04/05 00:18:23;;;;;;;26.38;9.07;;;5.50;99.90;;;;;;5043772;28;20037;-67
2021/04/05 00:20:52;;;;;;;29.45;7.88;;;5.50;99.90;;;;;;5039166;28;20065;-66
2021/04/05 00:23:17;;;;;;;27.65;8.50;;;5.40;99.90;;;;;;5049518;28;20047;-66
2021/04/05 00:25:43;;;;;;;25.20;10.27;;;5.40;99.90;;;;;;5040066;28;20033;-66
2021/04/05 00:28:09;;;;;;;33.50;8.85;;;5.50;99.90;;;;;;5047148;28;20044;-66
2021/04/05 00:30:36;;;;;;;26.70;8.68;;;5.50;99.90;;;;;;5048553;28;20053;-67
2021/04/05 00:33:03;;;;;;;30.08;8.75;;;5.50;99.90;;;;;;5041270;28;20052;-66
2021/04/05 00:35:31;;;;;;;29.33;9.40;;;5.60;99.90;;;;;;5042910;28;20440;-66
2021/04/05 00:37:58;;;;;;;32.97;9.35;;;5.60;99.90;;;;;;5044043;28;20036;-66
2021/04/05 00:40:28;;;;;;;25.40;8.57;;;5.60;99.90;;;;;;5045964;28;20444;-66
2021/04/05 00:42:54;;;;;;;22.88;9.30;;;5.60;99.90;;;;;;5045292;28;20040;-66
2021/04/05 00:45:20;;;;;;;26.58;9.85;;;5.60;99.90;;;;;;5044886;28;20136;-66
2021/04/05 00:47:48;;;;;;;39.20;10.85;;;5.60;99.90;;;;;;5048846;28;20063;-66
2021/04/05 00:50:19;;;;;;;28.00;9.05;;;5.60;99.90;;;;;;5042486;28;20067;-66
2021/04/05 00:52:50;;;;;;;29.88;8.25;;;5.50;99.90;;;;;;5040602;28;20514;-67
2021/04/05 00:55:17;;;;;;;29.42;9.68;;;5.50;99.90;;;;;;5046847;28;20060;-66
2021/04/05 00:57:43;;;;;;;32.25;9.80;;;5.50;99.90;;;;;;5047643;28;20041;-66
2021/04/05 01:00:13;;;;;;;33.53;9.80;;;5.50;99.90;;;;;;5043955;28;20029;-66
2021/04/05 01:02:38;;;;;;;36.05;10.15;;;5.60;99.90;;;;;;5047926;28;20033;-66
2021/04/05 01:05:05;;;;;;;27.85;8.68;;;5.60;99.90;;;;;;5040958;28;20049;-66
2021/04/05 01:07:31;;;;;;;26.20;9.20;;;5.70;99.90;;;;;;5039991;28;20052;-66
2021/04/05 01:09:56;;;;;;;32.05;9.35;;;5.80;99.90;;;;;;5043555;28;20037;-66
2021/04/05 01:12:22;;;;;;;43.80;9.75;;;5.90;99.90;;;;;;5045273;28;20090;-66
2021/04/05 01:14:48;;;;;;;23.55;8.93;;;6.00;99.90;;;;;;5045303;28;20033;-66
2021/04/05 01:17:13;;;;;;;28.52;8.13;;;6.00;99.90;;;;;;5042651;28;20032;-66
2021/04/05 01:19:39;;;;;;;33.42;10.43;;;6.00;99.90;;;;;;5039774;28;20029;-66
2021/04/05 01:22:05;;;;;;;28.08;9.52;;;6.10;99.90;;;;;;5047137;28;20064;-66
2021/04/05 01:24:30;;;;;;;30.30;10.25;;;6.20;99.90;;;;;;5041475;28;20064;-66
2021/04/05 01:26:56;;;;;;;28.30;10.30;;;6.20;99.90;;;;;;5041929;28;20064;-66
2021/04/05 01:29:22;;;;;;;33.78;9.00;;;6.30;99.90;;;;;;5045269;28;20033;-67
2021/04/05 01:31:48;;;;;;;27.27;9.10;;;6.40;99.90;;;;;;5041997;28;20029;-66
2021/04/05 01:34:13;;;;;;;26.05;8.55;;;6.40;99.90;;;;;;5043341;28;20038;-66
2021/04/05 01:36:39;;;;;;;26.75;9.10;;;6.50;99.90;;;;;;5040047;28;20055;-67
2021/04/05 01:39:04;;;;;;;19.70;6.93;;;6.60;99.90;;;;;;5050766;28;20041;-67
2021/04/05 01:41:31;;;;;;;29.13;7.82;;;6.70;99.90;;;;;;5055172;28;20145;-67
2021/04/05 01:43:57;;;;;;;27.58;6.60;;;6.80;99.90;;;;;;5057094;28;20037;-66
2021/04/05 01:46:24;;;;;;;50.45;7.95;;;6.90;99.90;;;;;;5049114;28;20049;-66
2021/04/05 01:48:50;;;;;;;26.60;6.13;;;7.00;99.90;;;;;;5045845;28;20033;-67
2021/04/05 01:51:22;;;;;;;36.75;7.80;;;7.10;99.90;;;;;;5045849;28;20124;-66
2021/04/05 01:53:49;;;;;;;33.97;8.27;;;7.10;99.90;;;;;;5042268;28;20550;-66
2021/04/05 01:56:16;;;;;;;31.92;6.63;;;7.20;99.90;;;;;;5041089;28;20041;-66
2021/04/05 01:58:45;;;;;;;26.33;6.53;;;7.20;99.90;;;;;;5043502;28;20025;-66
2021/04/05 02:01:18;;;;;;;21.15;5.47;;;7.20;99.90;;;;;;5041789;28;20033;-66
2021/04/05 02:03:44;;;;;;;29.80;6.20;;;7.20;99.90;;;;;;5042007;28;20626;-67
2021/04/05 02:06:24;;;;;;;27.17;6.38;;;7.20;99.90;;;;;;5038371;28;20103;-66
2021/04/05 02:08:50;;;;;;;17.27;5.30;;;7.20;99.90;;;;;;5042173;28;20037;-66
2021/04/05 02:11:19;;;;;;;20.70;5.22;;;7.30;99.90;;;;;;5046797;28;20103;-66
2021/04/05 02:13:47;;;;;;;15.32;4.50;;;7.40;99.90;;;;;;5047111;28;20045;-67
2021/04/05 02:16:14;;;;;;;15.73;5.00;;;7.50;99.90;;;;;;5045024;28;20056;-66
2021/04/05 02:18:40;;;;;;;14.60;4.05;;;7.70;99.90;;;;;;5041761;28;20033;-66
2021/04/05 02:21:25;;;;;;;22.50;4.32;;;7.70;99.90;;;;;;5043541;28;20354;-66
2021/04/05 02:24:00;;;;;;;14.32;4.35;;;7.70;99.90;;;;;;5041819;28;20044;-66
2021/04/05 02:26:28;;;;;;;12.07;4.45;;;7.70;99.90;;;;;;5041552;28;20032;-67
2021/04/05 02:28:59;;;;;;;9.75;3.60;;;7.60;99.90;;;;;;5045311;28;20032;-67
2021/04/05 02:31:25;;;;;;;13.02;3.75;;;7.60;99.90;;;;;;5041640;28;20349;-66
2021/04/05 02:33:54;;;;;;;13.85;4.40;;;7.70;99.90;;;;;;5044789;28;20029;-66
2021/04/05 02:36:23;;;;;;;14.95;5.10;;;7.60;99.90;;;;;;5044594;28;20029;-67
2021/04/05 02:38:51;;;;;;;13.75;3.80;;;7.70;99.90;;;;;;5038666;28;20043;-66
2021/04/05 02:41:18;;;;;;;14.98;4.57;;;7.70;99.90;;;;;;5037448;28;20036;-67
2021/04/05 02:43:45;;;;;;;10.57;3.67;;;7.80;99.90;;;;;;5043463;28;20062;-66
2021/04/05 02:46:18;;;;;;;17.95;4.05;;;7.80;99.90;;;;;;5040161;28;20116;-66
2021/04/05 02:48:47;;;;;;;12.25;4.40;;;7.80;99.90;;;;;;5060749;28;20033;-66
2021/04/05 02:51:13;;;;;;;15.35;3.60;;;7.90;99.90;;;;;;5041275;28;20038;-66
2021/04/05 02:53:50;;;;;;;10.82;3.55;;;7.90;99.90;;;;;;5042604;28;20405;-67
2021/04/05 02:56:17;;;;;;;11.18;3.80;;;8.00;99.90;;;;;;5043453;28;20512;-67
2021/04/05 02:58:48;;;;;;;12.57;3.85;;;8.00;99.90;;;;;;5071475;28;20071;-67
2021/04/05 03:01:15;;;;;;;24.63;4.88;;;8.00;99.90;;;;;;5042293;28;20894;-66
2021/04/05 03:03:42;;;;;;;15.95;4.10;;;8.00;99.90;;;;;;5039872;28;20548;-67
2021/04/05 03:06:11;;;;;;;15.10;5.60;;;8.10;99.90;;;;;;5047192;28;20036;-67
2021/04/05 03:08:37;;;;;;;14.63;3.60;;;8.10;99.90;;;;;;5042701;28;20982;-67
2021/04/05 03:11:06;;;;;;;15.35;4.20;;;8.10;99.90;;;;;;5037908;28;20163;-67
2021/04/05 03:13:35;;;;;;;8.68;3.08;;;8.10;99.90;;;;;;5039350;28;20032;-66
2021/04/05 03:16:04;;;;;;;18.63;4.15;;;8.20;99.90;;;;;;5044834;28;20398;-66
2021/04/05 03:18:31;;;;;;;13.23;4.53;;;8.10;99.90;;;;;;5043520;28;20036;-67
2021/04/05 03:20:57;;;;;;;14.77;4.30;;;8.10;99.90;;;;;;5040737;28;20064;-66
2021/04/05 03:23:23;;;;;;;15.20;5.03;;;8.10;99.90;;;;;;5046115;28;20173;-66
2021/04/05 03:25:49;;;;;;;17.48;4.43;;;8.10;99.90;;;;;;5038628;28;20029;-66
2021/04/05 03:28:16;;;;;;;11.70;3.97;;;8.10;99.90;;;;;;5046024;28;20051;-66
2021/04/05 03:30:46;;;;;;;11.38;3.65;;;8.20;99.90;;;;;;5049367;28;20052;-67
2021/04/05 03:33:31;;;;;;;13.37;4.07;;;8.20;99.90;;;;;;5044087;28;20390;-66
2021/04/05 03:36:01;;;;;;;13.60;4.43;;;8.20;99.90;;;;;;5041940;28;20032;-67
2021/04/05 03:38:27;;;;;;;19.02;4.55;;;8.20;99.90;;;;;;5042045;28;20025;-66
2021/04/05 03:40:56;;;;;;;13.00;4.07;;;8.30;99.90;;;;;;5048604;28;20100;-66
2021/04/05 03:43:45;;;;;;;16.85;4.03;;;8.30;99.90;;;;;;5045120;28;20457;-66
2021/04/05 03:46:27;;;;;;;11.02;4.13;;;8.40;99.90;;;;;;5042923;28;20018;-67
2021/04/05 03:49:06;;;;;;;11.82;4.10;;;8.40;99.90;;;;;;5044337;28;20432;-66
2021/04/05 03:51:37;;;;;;;10.70;3.97;;;8.40;99.90;;;;;;5040499;28;20041;-66
2021/04/05 03:54:07;;;;;;;;;;;8.30;99.90;;;;;;5049745;28;20478;-66
2021/04/05 03:56:43;;;;;;;12.88;4.43;;;8.40;99.90;;;;;;5050296;28;20347;-67
2021/04/05 03:59:18;;;;;;;17.17;3.83;;;8.40;99.90;;;;;;5043010;28;20059;-67
2021/04/05 04:01:48;;;;;;;19.15;4.93;;;8.40;99.90;;;;;;5050606;28;20036;-67
2021/04/05 04:04:22;;;;;;;14.18;5.63;;;8.40;99.90;;;;;;5044520;28;20053;-67
2021/04/05 04:07:14;;;;;;;12.60;3.92;;;8.40;99.90;;;;;;5044708;28;20021;-67
2021/04/05 04:09:41;;;;;;;10.50;3.97;;;8.40;99.90;;;;;;5046007;28;20119;-66
2021/04/05 04:12:11;;;;;;;16.23;3.72;;;8.30;99.90;;;;;;5043826;28;20041;-67
2021/04/05 04:14:39;;;;;;;18.97;4.10;;;8.30;99.90;;;;;;5042168;28;20395;-66
2021/04/05 04:17:07;;;;;;;12.82;3.90;;;8.40;99.90;;;;;;5043336;28;20377;-67
2021/04/05 04:19:36;;;;;;;24.17;5.10;;;8.30;99.90;;;;;;5043698;28;20033;-67
2021/04/05 04:22:02;;;;;;;12.35;4.32;;;8.40;99.90;;;;;;5048629;28;20417;-66
2021/04/05 04:24:28;;;;;;;17.20;4.88;;;8.40;99.90;;;;;;5046728;28;20053;-64
2021/04/05 04:26:54;;;;;;;12.93;4.13;;;8.40;99.90;;;;;;5051474;28;20037;-64
2021/04/05 04:29:21;;;;;;;14.48;4.38;;;8.40;99.90;;;;;;5046166;28;20025;-66
2021/04/05 04:31:47;;;;;;;16.02;4.70;;;8.30;99.90;;;;;;5044408;28;20052;-66
2021/04/05 04:34:17;;;;;;;19.40;5.38;;;8.30;99.90;;;;;;5045002;28;20569;-65
2021/04/05 04:36:43;;;;;;;15.38;4.13;;;8.30;99.90;;;;;;5042242;28;20437;-65
2021/04/05 04:39:10;;;;;;;13.27;3.63;;;8.30;99.90;;;;;;5050961;28;20212;-64
2021/04/05 04:41:35;;;;;;;29.52;6.85;;;8.20;99.90;;;;;;5046789;28;20037;-65
2021/04/05 04:44:03;;;;;;;11.13;3.92;;;8.20;99.90;;;;;;5051906;28;20090;-66
2021/04/05 04:46:29;;;;;;;11.35;4.55;;;8.20;99.90;;;;;;5047941;28;20544;-64
2021/04/05 04:49:00;;;;;;;17.55;4.43;;;8.20;99.90;;;;;;5047198;28;20033;-64
2021/04/05 04:51:26;;;;;;;11.07;4.15;;;8.20;99.90;;;;;;5051184;28;20033;-65
2021/04/05 04:53:57;;;;;;;22.63;5.15;;;8.20;99.90;;;;;;5043540;28;20118;-66
2021/04/05 04:56:23;;;;;;;16.02;4.28;;;8.20;99.90;;;;;;5046291;28;20036;-65
2021/04/05 04:58:49;;;;;;;11.57;3.55;;;8.20;99.90;;;;;;5041833;28;20029;-65
2021/04/05 05:01:16;;;;;;;10.50;4.70;;;8.20;99.90;;;;;;5045745;28;20398;-64
2021/04/05 05:03:51;;;;;;;13.88;3.75;;;8.30;99.90;;;;;;5041310;28;20056;-65
2021/04/05 05:06:17;;;;;;;14.85;4.05;;;8.40;99.90;;;;;;5043510;28;20066;-65
2021/04/05 05:08:44;;;;;;;15.93;4.57;;;8.40;99.90;;;;;;5044030;28;20087;-65
2021/04/05 05:11:10;;;;;;;8.13;2.42;;;8.40;99.90;;;;;;5046072;28;20029;-64
2021/04/05 05:13:35;;;;;;;5.00;0.90;;;8.10;99.90;;;;;;5043701;28;20037;-65
2021/04/05 05:16:07;;;;;;;5.35;0.90;;;7.70;99.90;;;;;;5043619;28;20036;-65
2021/04/05 05:18:34;;;;;;;4.13;0.50;;;7.30;99.90;;;;;;5063686;28;20037;-65
2021/04/05 05:21:03;;;;;;;3.70;0.85;;;6.90;99.90;;;;;;5047536;28;20038;-64
2021/04/05 05:23:30;;;;;;;7.78;1.02;;;6.60;99.90;;;;;;5047186;28;20032;-64
2021/04/05 05:25:56;;;;;;;9.07;2.25;;;6.40;99.90;;;;;;5086978;28;20105;-67
2021/04/05 05:28:22;;;;;;;7.55;0.77;;;6.20;99.90;;;;;;5058799;28;20120;-65
2021/04/05 05:30:48;;;;;;;11.27;1.25;;;6.10;99.90;;;;;;5053011;28;20017;-64
2021/04/05 05:33:14;;;;;;;5.30;0.80;;;6.00;99.90;;;;;;5045509;28;20040;-64
2021/04/05 05:35:41;;;;;;;9.90;0.80;;;5.90;99.90;;;;;;5047991;28;20033;-64
2021/04/05 05:38:07;;;;;;;4.60;0.63;;;5.90;99.90;;;;;;5042464;28;20559;-64
2021/04/05 05:40:34;;;;;;;5.07;0.75;;;5.90;99.90;;;;;;5048252;28;20021;-64
2021/04/05 05:43:11;;;;;;;6.75;1.77;;;5.90;99.90;;;;;;5046014;28;20041;-65
2021/04/05 05:45:55;;;;;;;4.35;1.58;;;5.90;99.90;;;;;;5043230;28;20037;-64
2021/04/05 05:48:23;;;;;;;11.73;2.45;;;5.90;99.90;;;;;;5073562;28;20431;-65
2021/04/05 05:51:11;;;;;;;5.63;1.02;;;5.80;99.90;;;;;;5044127;28;20045;-65
2021/04/05 05:53:55;;;;;;;4.25;0.70;;;5.90;99.90;;;;;;5039316;28;20138;-65
2021/04/05 05:56:42;;;;;;;10.85;1.80;;;5.90;99.90;;;;;;5044874;28;20067;-66
2021/04/05 05:59:25;;;;;;;4.43;1.08;;;5.90;99.90;;;;;;5045409;28;20032;-65
2021/04/05 06:02:14;;;;;;;4.78;1.15;;;5.90;99.90;;;;;;5045535;28;20513;-64
2021/04/05 06:05:02;;;;;;;9.20;1.92;;;5.90;99.90;;;;;;5042171;28;20397;-65
2021/04/05 06:07:32;;;;;;;4.53;1.15;;;5.90;99.90;;;;;;5046188;28;20033;-65
2021/04/05 06:10:16;;;;;;;11.35;1.60;;;5.90;99.90;;;;;;5041516;28;20080;-64
2021/04/05 06:13:06;;;;;;;5.60;1.00;;;5.80;99.90;;;;;;5045755;28;20094;-65
2021/04/05 06:15:46;;;;;;;6.28;1.00;;;5.80;99.90;;;;;;5043342;28;20035;-64
2021/04/05 06:18:24;;;;;;;6.43;0.77;;;5.70;99.90;;;;;;5044267;28;20394;-65
2021/04/05 06:21:29;;;;;;;6.90;1.00;;;5.60;99.90;;;;;;5044023;28;20037;-65
2021/04/05 06:24:01;;;;;;;3.85;1.20;;;5.50;99.90;;;;;;5039239;28;20052;-65
2021/04/05 06:26:52;;;;;;;6.75;1.10;;;5.40;99.90;;;;;;5047976;28;20393;-65
2021/04/05 06:29:28;;;;;;;15.75;1.85;;;5.40;99.90;;;;;;5082335;28;20041;-65
2021/04/05 06:32:19;;;;;;;14.27;2.63;;;5.30;99.90;;;;;;5047971;28;20052;-66
2021/04/05 06:35:11;;;;;;;6.63;1.42;;;5.30;99.90;;;;;;5076416;28;20111;-65
2021/04/05 06:37:45;;;;;;;6.15;0.95;;;5.30;99.90;;;;;;5071564;28;20056;-65
2021/04/05 06:40:19;;;;;;;3.47;0.50;;;5.30;99.90;;;;;;5038901;28;20064;-65
2021/04/05 06:43:16;;;;;;;4.32;0.25;;;5.30;99.90;;;;;;5044471;28;20094;-65
2021/04/05 06:45:52;;;;;;;3.20;0.63;;;5.20;99.90;;;;;;5040007;28;20065;-65
2021/04/05 06:48:36;;;;;;;2.35;0.43;;;4.90;99.90;;;;;;5062219;28;20037;-64
2021/04/05 06:51:06;;;;;;;3.72;0.75;;;4.80;99.90;;;;;;5070905;28;20449;-65
2021/04/05 06:53:44;;;;;;;5.28;0.90;;;4.70;99.90;;;;;;5046303;28;20071;-64
2021/04/05 06:56:49;;;;;;;5.97;0.90;;;4.60;99.90;;;;;;5039648;28;20378;-64
2021/04/05 06:59:43;;;;;;;9.45;1.40;;;4.60;99.90;;;;;;5035839;28;20114;-64
2021/04/05 07:02:56;;;;;;;18.48;2.60;;;4.60;99.90;;;;;;5041638;28;20037;-64
2021/04/05 07:06:11;;;;;;;8.57;1.45;;;4.70;99.90;;;;;;5004381;28;20132;-63
2021/04/05 07:08:58;;;;;;;16.40;1.55;;;4.70;99.90;;;;;;5010173;28;20412;-64
2021/04/05 07:11:33;;;;;;;12.68;1.58;;;4.70;99.90;;;;;;5044675;28;20037;-64
2021/04/05 07:14:25;;;;;;;17.70;1.92;;;4.60;99.90;;;;;;5048666;28;20379;-65
2021/04/05 07:16:54;;;;;;;12.98;2.30;;;4.60;99.90;;;;;;5048346;28;20053;-64
2021/04/05 07:19:48;;;;;;;13.40;2.13;;;4.50;99.90;;;;;;5046714;28;20040;-64
2021/04/05 07:22:38;;;;;;;8.35;1.35;;;4.50;99.90;;;;;;5045519;28;20032;-65
2021/04/05 07:25:12;;;;;;;13.48;2.28;;;4.40;99.90;;;;;;5040427;28;20044;-64
2021/04/05 07:27:54;;;;;;;10.70;2.47;;;4.50;99.90;;;;;;5044469;28;20029;-65
2021/04/05 07:30:41;;;;;;;16.00;1.27;;;4.50;99.90;;;;;;5042068;28;20115;-65
2021/04/05 07:33:23;;;;;;;21.50;2.50;;;4.40;99.90;;;;;;5044586;28;20041;-65
2021/04/05 07:36:15;;;;;;;14.23;2.40;;;4.40;99.90;;;;;;5042609;28;20108;-64
2021/04/05 07:39:02;;;;;;;13.27;2.20;;;4.40;99.90;;;;;;5043771;28;20029;-64
2021/04/05 07:41:48;;;;;;;15.30;2.08;;;4.40;99.90;;;;;;5062273;28;20787;-65
2021/04/05 07:44:42;;;;;;;15.02;1.33;;;4.50;99.90;;;;;;5045366;28;20497;-64
2021/04/05 07:47:13;;;;;;;15.55;1.40;;;4.50;99.90;;;;;;5060241;28;20424;-64
2021/04/05 07:49:57;;;;;;;8.95;0.93;;;4.40;99.90;;;;;;5047210;28;20033;-65
2021/04/05 07:52:36;;;;;;;15.73;2.15;;;4.40;99.90;;;;;;5044139;28;20043;-65
2021/04/05 07:55:04;;;;;;;17.70;1.83;;;4.40;99.90;;;;;;5045359;28;20037;-64
2021/04/05 07:58:01;;;;;;;8.45;1.20;;;4.40;99.90;;;;;;5043962;28;20056;-65
2021/04/05 08:00:52;;;;;;;7.03;1.17;;;4.50;99.90;;;;;;5040792;28;20069;-65
2021/04/05 08:04:02;;;;;;;11.23;1.70;;;4.80;99.90;;;;;;5068713;28;20087;-65
2021/04/05 08:06:35;;;;;;;8.48;2.17;;;4.80;99.90;;;;;;5039903;28;20061;-65
2021/04/05 08:09:06;;;;;;;10.90;1.15;;;4.90;99.90;;;;;;5046906;28;20486;-65
2021/04/05 08:12:20;;;;;;;8.02;1.33;;;4.90;99.90;;;;;;5043880;28;20033;-66
2021/04/05 08:15:01;;;;;;;12.80;2.05;;;4.80;99.90;;;;;;5031317;28;20032;-65
2021/04/05 08:17:45;;;;;;;4.45;0.50;;;4.80;99.90;;;;;;5042229;28;20033;-65
2021/04/05 08:20:42;;;;;;;5.20;0.50;;;4.90;99.90;;;;;;5047435;28;20035;-65
2021/04/05 08:23:33;;;;;;;4.53;0.60;;;4.90;99.90;;;;;;5039106;28;20449;-65
2021/04/05 08:26:22;;;;;;;7.47;0.75;;;5.00;99.90;;;;;;5044251;28;20098;-66
2021/04/05 08:29:13;;;;;;;13.15;2.35;;;5.20;99.90;;;;;;5045593;28;20116;-66
2021/04/05 08:31:38;;;;;;;6.85;0.55;;;5.30;99.90;;;;;;5050111;28;20025;-65
2021/04/05 08:34:28;;;;;;;5.30;0.63;;;5.40;99.90;;;;;;5044920;28;20048;-65
2021/04/05 08:37:14;;;;;;;7.93;1.27;;;5.50;99.90;;;;;;5041819;28;20037;-65
2021/04/05 08:39:51;;;;;;;5.40;0.60;;;5.40;99.90;;;;;;5066542;28;20040;-64
2021/04/05 08:42:47;;;;;;;7.00;0.70;;;5.10;99.90;;;;;;5050070;28;20045;-65
2021/04/05 08:45:20;;;;;;;4.90;0.50;;;5.00;99.90;;;;;;5045967;28;20068;-65
2021/04/05 08:47:57;;;;;;;5.03;0.85;;;5.00;99.90;;;;;;5046755;28;20044;-65
2021/04/05 08:50:25;;;;;;;1.20;0.20;;;4.90;99.90;;;;;;5044213;28;20087;-66
2021/04/05 08:52:53;;;;;;;2.75;0.40;;;4.90;99.90;;;;;;5045590;28;20029;-65
2021/04/05 08:55:24;;;;;;;4.07;0.50;;;5.00;99.90;;;;;;5043485;28;20045;-65
2021/04/05 08:58:06;;;;;;;1.23;0.57;;;5.10;99.90;;;;;;5043430;28;20040;-65
2021/04/05 09:00:36;;;;;;;0.85;0.35;;;5.20;99.90;;;;;;5051101;28;20036;-66
2021/04/05 09:03:08;;;;;;;9.43;0.97;;;4.90;99.90;;;;;;5043937;28;20033;-65
2021/04/05 09:05:43;;;;;;;5.10;0.30;;;4.60;99.90;;;;;;5048200;28;20040;-65
2021/04/05 09:08:10;;;;;;;1.38;0.30;;;4.40;99.90;;;;;;5050636;28;20040;-65
2021/04/05 09:10:41;;;;;;;2.67;0.50;;;4.50;99.90;;;;;;5067442;28;20032;-65
2021/04/05 09:13:11;;;;;;;1.55;0.28;;;4.60;99.90;;;;;;5058162;28;20041;-65
2021/04/05 09:16:10;;;;;;;2.95;0.45;;;4.60;99.90;;;;;;5053874;28;20032;-66
2021/04/05 09:18:50;;;;;;;5.60;0.88;;;4.70;99.90;;;;;;5065074;28;20176;-65
2021/04/05 09:21:39;;;;;;;6.90;0.60;;;4.80;99.90;;;;;;5047176;28;20036;-65
2021/04/05 09:24:25;;;;;;;3.13;0.60;;;4.90;99.90;;;;;;5045496;28;20344;-67
2021/04/05 09:27:20;;;;;;;6.30;0.70;;;5.00;99.90;;;;;;5043620;28;20059;-65
2021/04/05 09:30:10;;;;;;;3.45;0.50;;;5.10;99.90;;;;;;5073778;28;20426;-65
2021/04/05 09:33:02;;;;;;;7.47;1.30;;;5.30;99.90;;;;;;5043485;28;20061;-66
2021/04/05 09:35:45;;;;;;;9.52;1.50;;;5.50;99.90;;;;;;5038110;28;20037;-66
2021/04/05 09:38:23;;;;;;;6.25;0.93;;;5.80;99.90;;;;;;5045258;28;20112;-65
2021/04/05 09:41:13;;;;;;;6.53;1.10;;;6.00;99.90;;;;;;5044132;28;20485;-65
2021/04/05 09:44:20;;;;;;;8.70;2.20;;;6.00;97.60;;;;;;5046359;28;20065;-65
2021/04/05 09:47:11;;;;;;;10.85;1.15;;;5.90;96.10;;;;;;5035693;28;20550;-65
2021/04/05 09:49:55;;;;;;;9.77;0.80;;;5.80;95.00;;;;;;5038458;28;20440;-65
2021/04/05 09:52:41;;;;;;;10.27;1.98;;;5.70;94.90;;;;;;5045237;28;20034;-65
2021/04/05 09:55:23;;;;;;;6.75;1.38;;;5.80;96.20;;;;;;5042836;28;20041;-65
2021/04/05 09:58:03;;;;;;;6.60;1.40;;;5.60;94.70;;;;;;5044435;28;20029;-65
2021/04/05 10:00:30;;;;;;;10.35;1.02;;;5.60;95.20;;;;;;5038768;28;20036;-64
2021/04/05 10:03:03;;;;;;;9.50;1.15;;;5.50;94.60;;;;;;5042868;28;20033;-64
2021/04/05 10:05:33;;;;;;;6.03;1.63;;;5.20;97.10;;;;;;5046596;28;20041;-65
2021/04/05 10:08:01;;;;;;;7.85;0.95;;;5.20;99.80;;;;;;5074193;28;20486;-65
2021/04/05 10:10:28;;;;;;;12.85;1.13;;;5.40;99.90;;;;;;5044615;28;20040;-64
2021/04/05 10:12:57;;;;;;;7.15;0.75;;;5.30;99.90;;;;;;5036890;28;20037;-65
2021/04/05 10:15:27;;;;;;;3.88;0.90;;;5.10;99.90;;;;;;5047915;28;20431;-64
2021/04/05 10:18:00;;;;;;;3.73;0.67;;;5.20;99.90;;;;;;5039733;28;20029;-65
2021/04/05 10:20:30;;;;;;;12.40;1.20;;;5.20;99.90;;;;;;5043289;28;20075;-65
2021/04/05 10:22:57;;;;;;;6.00;0.75;;;5.30;99.90;;;;;;5040572;28;20049;-65
2021/04/05 10:25:25;;;;;;;11.57;1.20;;;5.40;97.90;;;;;;5049357;28;20029;-64
2021/04/05 10:27:55;;;;;;;7.68;0.88;;;5.50;99.40;;;;;;5041896;28;20047;-65
2021/04/05 10:30:31;;;;;;;4.10;1.27;;;5.60;97.60;;;;;;5044960;28;20445;-65
2021/04/05 10:33:05;;;;;;;6.05;0.90;;;5.90;97.20;;;;;;5044613;28;20509;-65
2021/04/05 10:35:35;;;;;;;6.03;0.95;;;5.80;96.70;;;;;;5046287;28;20090;-65
2021/04/05 10:38:04;;;;;;;9.35;1.55;;;5.60;77.60;;;;;;5049059;28;20120;-65
2021/04/05 10:40:30;;;;;;;4.68;0.90;;;5.70;71.50;;;;;;5047207;28;20108;-66
2021/04/05 10:43:05;;;;;;;3.70;0.45;;;5.80;70.70;;;;;;5049298;28;20117;-65
2021/04/05 10:45:35;;;;;;;2.90;0.80;;;5.90;61.80;;;;;;5045155;28;20560;-65
2021/04/05 10:48:17;;;;;;;6.18;1.73;;;5.80;68.10;;;;;;5047253;28;20171;-64
2021/04/05 10:51:05;;;;;;;7.60;0.93;;;5.70;79.60;;;;;;5049190;28;20033;-65
2021/04/05 10:53:36;;;;;;;6.28;1.02;;;5.30;82.20;;;;;;5045587;28;20036;-66
2021/04/05 10:56:05;;;;;;;7.35;0.93;;;5.30;86.30;;;;;;5046915;28;20037;-65
2021/04/05 10:58:41;;;;;;;3.03;1.02;;;5.40;85.80;;;;;;5048335;28;20103;-66
2021/04/05 11:01:09;;;;;;;3.53;1.05;;;5.30;79.10;;;;;;5045881;28;20036;-67
2021/04/05 11:03:40;;;;;;;7.10;1.00;;;5.30;77.80;;;;;;5048815;28;20132;-65
2021/04/05 11:06:11;;;;;;;5.22;0.60;;;5.40;78.70;;;;;;5049561;28;20131;-64
2021/04/05 11:08:38;;;;;;;8.93;0.70;;;5.60;81.10;;;;;;5043610;28;20040;-64
2021/04/05 11:11:15;;;;;;;3.72;0.70;;;5.90;78.10;;;;;;5046921;28;20409;-65
2021/04/05 11:13:46;;;;;;;4.13;0.63;;;5.90;74.50;;;;;;5043607;28;20557;-65
2021/04/05 11:16:13;;;;;;;10.32;0.52;;;6.00;74.00;;;;;;5044415;28;20032;-64
2021/04/05 11:18:54;;;;;;;5.03;0.55;;;6.10;74.10;;;;;;5047444;28;20025;-65
2021/04/05 11:21:32;;;;;;;5.82;0.73;;;6.20;71.80;;;;;;5042134;28;20482;-64
2021/04/05 11:23:58;;;;;;;7.53;0.90;;;6.20;69.70;;;;;;5047198;28;20048;-65
2021/04/05 11:26:33;;;;;;;3.50;0.63;;;6.50;68.80;;;;;;5038910;28;20025;-67
2021/04/05 11:29:05;;;;;;;4.45;1.00;;;6.70;67.10;;;;;;5044986;28;20028;-65
2021/04/05 11:31:43;;;;;;;9.60;1.10;;;6.50;67.00;;;;;;5041428;28;20044;-65
2021/04/05 11:34:10;;;;;;;1.40;0.20;;;5.80;90.60;;;;;;5040084;28;20041;-64
2021/04/05 11:36:38;;;;;;;5.30;0.50;;;4.70;99.90;;;;;;5039987;28;20037;-65
2021/04/05 11:39:09;;;;;;;7.93;0.70;;;3.80;99.90;;;;;;5038242;28;20040;-65
2021/04/05 11:41:36;;;;;;;1.77;0.30;;;3.40;99.90;;;;;;5038269;28;20044;-66
2021/04/05 11:44:04;;;;;;;6.40;0.60;;;3.20;99.90;;;;;;5039035;28;20040;-65
2021/04/05 11:46:33;;;;;;;2.45;0.40;;;3.30;99.90;;;;;;5041607;28;20611;-65
2021/04/05 11:49:16;;;;;;;14.32;0.73;;;3.50;99.90;;;;;;5043238;28;20082;-64
2021/04/05 11:51:59;;;;;;;4.55;0.50;;;3.80;99.90;;;;;;5045052;28;20033;-65
2021/04/05 11:54:36;;;;;;;7.78;1.02;;;4.20;99.90;;;;;;5046420;28;20490;-65
2021/04/05 11:57:06;;;;;;;8.18;0.80;;;4.70;99.90;;;;;;5041174;28;20148;-65
2021/04/05 11:59:35;;;;;;;5.72;0.82;;;5.00;99.00;;;;;;5042017;28;20029;-65
2021/04/05 12:02:07;;;;;;;3.67;0.55;;;5.10;98.40;;;;;;5045354;28;20041;-65
2021/04/05 12:04:50;;;;;;;3.88;0.47;;;5.10;97.40;;;;;;5048143;28;20061;-65
2021/04/05 12:07:23;;;;;;;7.20;0.40;;;4.90;99.90;;;;;;5040754;28;20029;-64
2021/04/05 12:09:55;;;;;;;2.00;0.35;;;4.40;99.90;;;;;;5047245;28;21124;-64
2021/04/05 12:12:33;;;;;;;4.88;0.75;;;4.10;99.90;;;;;;5045447;28;20040;-65
2021/04/05 12:15:00;;;;;;;1.42;0.13;;;3.90;99.90;;;;;;5046229;28;20036;-65
2021/04/05 12:17:27;;;;;;;4.22;0.52;;;3.90;99.90;;;;;;5047326;28;20397;-64
2021/04/05 12:19:56;;;;;;;5.20;0.45;;;4.10;99.90;;;;;;5039925;28;20021;-65
2021/04/05 12:22:30;;;;;;;1.05;0.20;;;4.20;99.90;;;;;;5044009;28;20041;-65
2021/04/05 12:24:59;;;;;;;3.88;0.40;;;4.40;99.90;;;;;;5045270;28;20041;-65
2021/04/05 12:27:32;;;;;;;2.92;0.38;;;4.50;99.90;;;;;;5050845;28;20445;-65
2021/04/05 12:30:03;;;;;;;2.70;0.30;;;4.60;99.90;;;;;;5043939;28;20102;-66
2021/04/05 12:32:30;;;;;;;5.88;1.65;;;4.60;99.90;;;;;;5048173;28;20560;-65
2021/04/05 12:34:58;;;;;;;3.72;0.93;;;4.80;99.90;;;;;;5047184;28;20029;-66
2021/04/05 12:37:26;;;;;;;5.72;0.50;;;4.80;99.90;;;;;;5041701;28;20024;-64
2021/04/05 12:40:03;;;;;;;3.60;0.73;;;4.90;99.90;;;;;;5048002;28;20048;-64
2021/04/05 12:42:36;;;;;;;5.75;0.55;;;5.10;99.90;;;;;;5049345;28;20108;-66
2021/04/05 12:45:06;;;;;;;6.35;0.77;;;5.30;97.00;;;;;;5045007;28;20044;-64
2021/04/05 12:47:34;;;;;;;9.82;0.73;;;5.60;94.30;;;;;;5047333;28;20088;-64
2021/04/05 12:50:13;;;;;;;3.97;0.50;;;5.80;90.30;;;;;;5045483;28;20042;-65
2021/04/05 12:52:41;;;;;;;9.48;0.40;;;6.00;84.40;;;;;;5067043;28;20438;-65
2021/04/05 12:55:14;;;;;;;4.55;0.65;;;6.20;84.90;;;;;;5055142;28;20166;-66
2021/04/05 12:57:40;;;;;;;7.78;1.45;;;6.10;82.40;;;;;;5059169;28;20044;-66
2021/04/05 13:00:26;;;;;;;8.10;1.13;;;6.10;81.00;;;;;;5062472;28;20029;-65
2021/04/05 13:03:13;;;;;;;7.13;0.70;;;6.10;81.80;;;;;;5063877;28;20124;-65
2021/04/05 13:06:04;;;;;;;4.93;1.48;;;6.10;83.90;;;;;;5050655;28;20063;-65
2021/04/05 13:08:45;;;;;;;4.68;0.70;;;6.00;88.20;;;;;;5044687;28;20086;-65
2021/04/05 13:11:13;;;;;;;7.50;0.50;;;5.70;86.40;;;;;;5062882;28;20033;-66
2021/04/05 13:13:48;;;;;;;6.82;0.80;;;5.70;89.70;;;;;;5051557;28;20029;-65
2021/04/05 13:16:27;;;;;;;3.53;0.50;;;5.70;90.80;;;;;;5044351;28;20083;-64
2021/04/05 13:18:53;;;;;;;6.15;0.68;;;5.80;86.60;;;;;;5047112;28;20037;-66
2021/04/05 13:21:20;;;;;;;3.65;0.50;;;5.90;84.40;;;;;;5048817;28;20587;-65
2021/04/05 13:23:52;;;;;;;7.05;0.93;;;5.90;80.60;;;;;;5040607;28;20041;-65
2021/04/05 13:26:29;;;;;;;6.18;0.90;;;5.80;79.80;;;;;;5040197;28;20115;-66
2021/04/05 13:28:55;;;;;;;10.20;1.58;;;5.30;99.90;;;;;;5042009;28;20108;-66